Terminal Aerodrome Forecast
Issued by NWS

Current Version | Previous Version | Text Only | Print | Product List | Glossary On
Versions: 1 2 3 4 5 6 7 8 9 10 11 12 13 14 15 16 17 18 19 20 21 22 23 24 25
780
FTUS45 KPSR 232058 AAA
TAFPHX
TAF AMD
KPHX 232058Z 2321/2424 18008KT P6SM SKC
     FM232300 24009KT P6SM SKC
     FM241000 11004KT P6SM SKC
     FM241900 21007KT P6SM SKC=

USA.gov is the U.S. government's official web portal to all federal, state and local government web resources and services.